sensor_id;sensor_type;location;lat;lon;timestamp;P1;P2;P0
45990;PMS5003;31721;41.740;-88.000;2023-03-12T00:00:24;6;3;
45990;PMS5003;31721;41.740;-88.000;2023-03-12T00:02:52;6;5;
45990;PMS5003;31721;41.740;-88.000;2023-03-12T00:05:20;7;6;
45990;PMS5003;31721;41.740;-88.000;2023-03-12T00:07:48;5;5;
45990;PMS5003;31721;41.740;-88.000;2023-03-12T00:10:15;12;5;
45990;PMS5003;31721;41.740;-88.000;2023-03-12T00:12:43;2;2;
45990;PMS5003;31721;41.740;-88.000;2023-03-12T00:15:11;5;5;
45990;PMS5003;31721;41.740;-88.000;2023-03-12T00:17:39;5;5;
45990;PMS5003;31721;41.740;-88.000;2023-03-12T00:20:08;2;2;
45990;PMS5003;31721;41.740;-88.000;2023-03-12T00:22:36;6;6;
45990;PMS5003;31721;41.740;-88.000;2023-03-12T00:25:06;5;5;
45990;PMS5003;31721;41.740;-88.000;2023-03-12T00:27:38;3;3;
45990;PMS5003;31721;41.740;-88.000;2023-03-12T00:30:07;6;6;
45990;PMS5003;31721;41.740;-88.000;2023-03-12T00:32:37;5;5;
45990;PMS5003;31721;41.740;-88.000;2023-03-12T00:35:06;5;3;
45990;PMS5003;31721;41.740;-88.000;2023-03-12T00:37:35;6;5;
45990;PMS5003;31721;41.740;-88.000;2023-03-12T00:40:05;8;3;
45990;PMS5003;31721;41.740;-88.000;2023-03-12T00:42:34;7;5;
45990;PMS5003;31721;41.740;-88.000;2023-03-12T00:45:03;7;7;
45990;PMS5003;31721;41.740;-88.000;2023-03-12T00:47:31;6;5;
45990;PMS5003;31721;41.740;-88.000;2023-03-12T00:49:59;15;8;
45990;PMS5003;31721;41.740;-88.000;2023-03-12T00:52:27;7;6;
45990;PMS5003;31721;41.740;-88.000;2023-03-12T00:54:56;5;5;
45990;PMS5003;31721;41.740;-88.000;2023-03-12T00:57:24;6;6;
45990;PMS5003;31721;41.740;-88.000;2023-03-12T00:59:52;6;6;
45990;PMS5003;31721;41.740;-88.000;2023-03-12T01:02:21;10;5;
45990;PMS5003;31721;41.740;-88.000;2023-03-12T01:04:49;3;3;
45990;PMS5003;31721;41.740;-88.000;2023-03-12T01:07:17;8;6;
45990;PMS5003;31721;41.740;-88.000;2023-03-12T01:09:45;3;3;
45990;PMS5003;31721;41.740;-88.000;2023-03-12T01:12:13;8;6;
45990;PMS5003;31721;41.740;-88.000;2023-03-12T01:14:40;6;6;
45990;PMS5003;31721;41.740;-88.000;2023-03-12T01:17:08;7;7;
45990;PMS5003;31721;41.740;-88.000;2023-03-12T01:19:37;6;5;
45990;PMS5003;31721;41.740;-88.000;2023-03-12T01:22:05;3;3;
45990;PMS5003;31721;41.740;-88.000;2023-03-12T01:24:33;8;6;
45990;PMS5003;31721;41.740;-88.000;2023-03-12T01:27:02;10;5;
45990;PMS5003;31721;41.740;-88.000;2023-03-12T01:29:30;8;6;
45990;PMS5003;31721;41.740;-88.000;2023-03-12T01:31:58;3;3;
45990;PMS5003;31721;41.740;-88.000;2023-03-12T01:34:27;6;5;
45990;PMS5003;31721;41.740;-88.000;2023-03-12T01:36:54;7;6;
45990;PMS5003;31721;41.740;-88.000;2023-03-12T01:39:22;7;3;
45990;PMS5003;31721;41.740;-88.000;2023-03-12T01:41:50;14;12;
45990;PMS5003;31721;41.740;-88.000;2023-03-12T01:44:19;7;6;
45990;PMS5003;31721;41.740;-88.000;2023-03-12T01:46:47;6;3;
45990;PMS5003;31721;41.740;-88.000;2023-03-12T01:49:16;7;5;
45990;PMS5003;31721;41.740;-88.000;2023-03-12T01:51:49;6;3;
45990;PMS5003;31721;41.740;-88.000;2023-03-12T01:54:23;9;7;
45990;PMS5003;31721;41.740;-88.000;2023-03-12T01:56:55;7;6;
45990;PMS5003;31721;41.740;-88.000;2023-03-12T01:59:27;2;2;
45990;PMS5003;31721;41.740;-88.000;2023-03-12T02:01:57;6;6;
45990;PMS5003;31721;41.740;-88.000;2023-03-12T02:04:25;6;6;
45990;PMS5003;31721;41.740;-88.000;2023-03-12T02:06:56;7;5;
45990;PMS5003;31721;41.740;-88.000;2023-03-12T02:09:30;5;5;
45990;PMS5003;31721;41.740;-88.000;2023-03-12T02:12:00;7;5;
45990;PMS5003;31721;41.740;-88.000;2023-03-12T02:14:29;5;5;
45990;PMS5003;31721;41.740;-88.000;2023-03-12T02:16:58;6;6;
45990;PMS5003;31721;41.740;-88.000;2023-03-12T02:19:37;3;3;
45990;PMS5003;31721;41.740;-88.000;2023-03-12T02:22:15;6;5;
45990;PMS5003;31721;41.740;-88.000;2023-03-12T02:24:45;7;7;
45990;PMS5003;31721;41.740;-88.000;2023-03-12T02:27:18;7;7;
45990;PMS5003;31721;41.740;-88.000;2023-03-12T02:29:47;10;7;
45990;PMS5003;31721;41.740;-88.000;2023-03-12T02:32:17;9;7;
45990;PMS5003;31721;41.740;-88.000;2023-03-12T02:34:48;10;6;
45990;PMS5003;31721;41.740;-88.000;2023-03-12T02:37:17;10;10;
45990;PMS5003;31721;41.740;-88.000;2023-03-12T02:39:49;9;6;
45990;PMS5003;31721;41.740;-88.000;2023-03-12T02:42:21;11;7;
45990;PMS5003;31721;41.740;-88.000;2023-03-12T02:44:51;9;7;
45990;PMS5003;31721;41.740;-88.000;2023-03-12T02:47:21;6;6;
45990;PMS5003;31721;41.740;-88.000;2023-03-12T02:49:49;11;10;
45990;PMS5003;31721;41.740;-88.000;2023-03-12T02:52:18;11;9;
45990;PMS5003;31721;41.740;-88.000;2023-03-12T02:54:46;14;9;
45990;PMS5003;31721;41.740;-88.000;2023-03-12T02:57:14;10;10;
45990;PMS5003;31721;41.740;-88.000;2023-03-12T02:59:42;11;10;
45990;PMS5003;31721;41.740;-88.000;2023-03-12T03:02:10;14;13;
45990;PMS5003;31721;41.740;-88.000;2023-03-12T03:04:37;14;11;
45990;PMS5003;31721;41.740;-88.000;2023-03-12T03:07:06;15;13;
45990;PMS5003;31721;41.740;-88.000;2023-03-12T03:09:34;11;10;
45990;PMS5003;31721;41.740;-88.000;2023-03-12T03:12:02;13;10;
45990;PMS5003;31721;41.740;-88.000;2023-03-12T03:14:31;16;14;
45990;PMS5003;31721;41.740;-88.000;2023-03-12T03:17:00;13;13;
45990;PMS5003;31721;41.740;-88.000;2023-03-12T03:19:28;22;16;
45990;PMS5003;31721;41.740;-88.000;2023-03-12T03:21:57;15;14;
45990;PMS5003;31721;41.740;-88.000;2023-03-12T03:24:25;13;13;
45990;PMS5003;31721;41.740;-88.000;2023-03-12T03:26:53;19;18;
45990;PMS5003;31721;41.740;-88.000;2023-03-12T03:29:22;19;15;
45990;PMS5003;31721;41.740;-88.000;2023-03-12T03:31:50;18;16;
45990;PMS5003;31721;41.740;-88.000;2023-03-12T03:34:18;30;24;
45990;PMS5003;31721;41.740;-88.000;2023-03-12T03:36:47;27;26;
45990;PMS5003;31721;41.740;-88.000;2023-03-12T03:39:15;22;22;
45990;PMS5003;31721;41.740;-88.000;2023-03-12T03:41:43;27;22;
45990;PMS5003;31721;41.740;-88.000;2023-03-12T03:44:12;27;24;
45990;PMS5003;31721;41.740;-88.000;2023-03-12T03:46:40;20;18;
45990;PMS5003;31721;41.740;-88.000;2023-03-12T03:49:08;34;28;
45990;PMS5003;31721;41.740;-88.000;2023-03-12T03:51:36;23;21;
45990;PMS5003;31721;41.740;-88.000;2023-03-12T03:54:03;19;19;
45990;PMS5003;31721;41.740;-88.000;2023-03-12T03:56:32;23;21;
45990;PMS5003;31721;41.740;-88.000;2023-03-12T03:59:00;26;21;
45990;PMS5003;31721;41.740;-88.000;2023-03-12T04:01:28;24;19;
45990;PMS5003;31721;41.740;-88.000;2023-03-12T04:03:57;23;21;
45990;PMS5003;31721;41.740;-88.000;2023-03-12T04:06:26;33;28;
45990;PMS5003;31721;41.740;-88.000;2023-03-12T04:08:54;25;25;
45990;PMS5003;31721;41.740;-88.000;2023-03-12T04:11:23;23;18;
45990;PMS5003;31721;41.740;-88.000;2023-03-12T04:13:51;23;23;
45990;PMS5003;31721;41.740;-88.000;2023-03-12T04:16:19;21;17;
45990;PMS5003;31721;41.740;-88.000;2023-03-12T04:18:47;22;18;
45990;PMS5003;31721;41.740;-88.000;2023-03-12T04:21:15;17;17;
45990;PMS5003;31721;41.740;-88.000;2023-03-12T04:23:43;26;19;
45990;PMS5003;31721;41.740;-88.000;2023-03-12T04:26:11;34;26;
45990;PMS5003;31721;41.740;-88.000;2023-03-12T04:28:39;26;22;
45990;PMS5003;31721;41.740;-88.000;2023-03-12T04:31:07;29;22;
45990;PMS5003;31721;41.740;-88.000;2023-03-12T04:33:38;23;22;
45990;PMS5003;31721;41.740;-88.000;2023-03-12T04:36:06;30;27;
45990;PMS5003;31721;41.740;-88.000;2023-03-12T04:38:35;31;25;
45990;PMS5003;31721;41.740;-88.000;2023-03-12T04:41:03;30;26;
45990;PMS5003;31721;41.740;-88.000;2023-03-12T04:43:34;21;21;
45990;PMS5003;31721;41.740;-88.000;2023-03-12T04:46:03;29;25;
45990;PMS5003;31721;41.740;-88.000;2023-03-12T04:48:31;22;22;
45990;PMS5003;31721;41.740;-88.000;2023-03-12T04:51:00;18;17;
45990;PMS5003;31721;41.740;-88.000;2023-03-12T04:53:28;22;19;
45990;PMS5003;31721;41.740;-88.000;2023-03-12T04:55:57;17;15;
45990;PMS5003;31721;41.740;-88.000;2023-03-12T04:58:25;27;20;
45990;PMS5003;31721;41.740;-88.000;2023-03-12T05:00:53;22;21;
45990;PMS5003;31721;41.740;-88.000;2023-03-12T05:03:21;18;18;
45990;PMS5003;31721;41.740;-88.000;2023-03-12T05:05:50;15;14;
45990;PMS5003;31721;41.740;-88.000;2023-03-12T05:08:18;18;15;
45990;PMS5003;31721;41.740;-88.000;2023-03-12T05:10:47;23;21;
45990;PMS5003;31721;41.740;-88.000;2023-03-12T05:13:16;15;15;
45990;PMS5003;31721;41.740;-88.000;2023-03-12T05:15:46;18;15;
45990;PMS5003;31721;41.740;-88.000;2023-03-12T05:18:14;14;11;
45990;PMS5003;31721;41.740;-88.000;2023-03-12T05:20:43;23;22;
45990;PMS5003;31721;41.740;-88.000;2023-03-12T05:23:11;21;17;
45990;PMS5003;31721;41.740;-88.000;2023-03-12T05:25:39;19;15;
45990;PMS5003;31721;41.740;-88.000;2023-03-12T05:28:07;18;13;
45990;PMS5003;31721;41.740;-88.000;2023-03-12T05:30:37;22;17;
45990;PMS5003;31721;41.740;-88.000;2023-03-12T05:33:05;29;25;
45990;PMS5003;31721;41.740;-88.000;2023-03-12T05:35:33;25;17;
45990;PMS5003;31721;41.740;-88.000;2023-03-12T05:38:02;19;19;
45990;PMS5003;31721;41.740;-88.000;2023-03-12T05:40:30;18;15;
45990;PMS5003;31721;41.740;-88.000;2023-03-12T05:42:58;22;22;
45990;PMS5003;31721;41.740;-88.000;2023-03-12T05:45:26;22;21;
45990;PMS5003;31721;41.740;-88.000;2023-03-12T05:47:54;19;15;
45990;PMS5003;31721;41.740;-88.000;2023-03-12T05:50:22;19;17;
45990;PMS5003;31721;41.740;-88.000;2023-03-12T05:52:51;13;13;
45990;PMS5003;31721;41.740;-88.000;2023-03-12T05:55:18;18;17;
45990;PMS5003;31721;41.740;-88.000;2023-03-12T05:57:45;21;21;
45990;PMS5003;31721;41.740;-88.000;2023-03-12T06:00:13;17;14;
45990;PMS5003;31721;41.740;-88.000;2023-03-12T06:02:42;17;17;
45990;PMS5003;31721;41.740;-88.000;2023-03-12T06:05:11;21;18;
45990;PMS5003;31721;41.740;-88.000;2023-03-12T06:07:39;27;18;
45990;PMS5003;31721;41.740;-88.000;2023-03-12T06:10:08;17;15;
45990;PMS5003;31721;41.740;-88.000;2023-03-12T06:12:36;22;22;
45990;PMS5003;31721;41.740;-88.000;2023-03-12T06:15:05;21;19;
45990;PMS5003;31721;41.740;-88.000;2023-03-12T06:17:33;14;14;
45990;PMS5003;31721;41.740;-88.000;2023-03-12T06:20:01;30;25;
45990;PMS5003;31721;41.740;-88.000;2023-03-12T06:22:29;21;19;
45990;PMS5003;31721;41.740;-88.000;2023-03-12T06:24:57;15;11;
45990;PMS5003;31721;41.740;-88.000;2023-03-12T06:27:25;22;18;
45990;PMS5003;31721;41.740;-88.000;2023-03-12T06:29:53;27;22;
45990;PMS5003;31721;41.740;-88.000;2023-03-12T06:32:21;18;17;
45990;PMS5003;31721;41.740;-88.000;2023-03-12T06:34:49;30;27;
45990;PMS5003;31721;41.740;-88.000;2023-03-12T06:37:17;25;18;
45990;PMS5003;31721;41.740;-88.000;2023-03-12T06:39:45;26;23;
45990;PMS5003;31721;41.740;-88.000;2023-03-12T06:42:13;19;19;
45990;PMS5003;31721;41.740;-88.000;2023-03-12T06:44:42;19;18;
45990;PMS5003;31721;41.740;-88.000;2023-03-12T06:47:09;30;27;
45990;PMS5003;31721;41.740;-88.000;2023-03-12T06:49:38;23;19;
45990;PMS5003;31721;41.740;-88.000;2023-03-12T06:52:06;32;28;
45990;PMS5003;31721;41.740;-88.000;2023-03-12T06:54:34;31;22;
45990;PMS5003;31721;41.740;-88.000;2023-03-12T06:57:01;30;21;
45990;PMS5003;31721;41.740;-88.000;2023-03-12T06:59:29;24;21;
45990;PMS5003;31721;41.740;-88.000;2023-03-12T07:01:57;22;21;
45990;PMS5003;31721;41.740;-88.000;2023-03-12T07:04:25;31;27;
45990;PMS5003;31721;41.740;-88.000;2023-03-12T07:06:53;27;19;
45990;PMS5003;31721;41.740;-88.000;2023-03-12T07:09:21;29;21;
45990;PMS5003;31721;41.740;-88.000;2023-03-12T07:11:49;28;24;
45990;PMS5003;31721;41.740;-88.000;2023-03-12T07:14:17;22;21;
45990;PMS5003;31721;41.740;-88.000;2023-03-12T07:16:45;26;23;
45990;PMS5003;31721;41.740;-88.000;2023-03-12T07:19:13;33;26;
45990;PMS5003;31721;41.740;-88.000;2023-03-12T07:21:41;32;26;
45990;PMS5003;31721;41.740;-88.000;2023-03-12T07:24:09;25;19;
45990;PMS5003;31721;41.740;-88.000;2023-03-12T07:26:36;17;17;
45990;PMS5003;31721;41.740;-88.000;2023-03-12T07:29:04;27;23;
45990;PMS5003;31721;41.740;-88.000;2023-03-12T07:31:32;23;23;
45990;PMS5003;31721;41.740;-88.000;2023-03-12T07:34:00;29;27;
45990;PMS5003;31721;41.740;-88.000;2023-03-12T07:36:28;31;27;
45990;PMS5003;31721;41.740;-88.000;2023-03-12T07:38:55;29;25;
45990;PMS5003;31721;41.740;-88.000;2023-03-12T07:41:23;27;25;
45990;PMS5003;31721;41.740;-88.000;2023-03-12T07:43:51;32;28;
45990;PMS5003;31721;41.740;-88.000;2023-03-12T07:46:19;30;22;
45990;PMS5003;31721;41.740;-88.000;2023-03-12T07:48:47;31;30;
45990;PMS5003;31721;41.740;-88.000;2023-03-12T07:51:15;30;21;
45990;PMS5003;31721;41.740;-88.000;2023-03-12T07:53:44;31;27;
45990;PMS5003;31721;41.740;-88.000;2023-03-12T07:56:11;22;21;
45990;PMS5003;31721;41.740;-88.000;2023-03-12T07:58:39;30;27;
45990;PMS5003;31721;41.740;-88.000;2023-03-12T08:01:07;26;26;
45990;PMS5003;31721;41.740;-88.000;2023-03-12T08:03:35;22;21;
45990;PMS5003;31721;41.740;-88.000;2023-03-12T08:06:03;25;18;
45990;PMS5003;31721;41.740;-88.000;2023-03-12T08:08:32;27;22;
45990;PMS5003;31721;41.740;-88.000;2023-03-12T08:11:02;19;15;
45990;PMS5003;31721;41.740;-88.000;2023-03-12T08:13:30;24;23;
45990;PMS5003;31721;41.740;-88.000;2023-03-12T08:15:57;17;13;
45990;PMS5003;31721;41.740;-88.000;2023-03-12T08:18:26;21;14;
45990;PMS5003;31721;41.740;-88.000;2023-03-12T08:20:54;31;22;
45990;PMS5003;31721;41.740;-88.000;2023-03-12T08:23:21;14;13;
45990;PMS5003;31721;41.740;-88.000;2023-03-12T08:25:49;23;18;
45990;PMS5003;31721;41.740;-88.000;2023-03-12T08:28:18;25;18;
45990;PMS5003;31721;41.740;-88.000;2023-03-12T08:30:47;18;17;
45990;PMS5003;31721;41.740;-88.000;2023-03-12T08:33:17;26;19;
45990;PMS5003;31721;41.740;-88.000;2023-03-12T08:35:45;19;18;
45990;PMS5003;31721;41.740;-88.000;2023-03-12T08:38:14;15;13;
45990;PMS5003;31721;41.740;-88.000;2023-03-12T08:40:42;21;18;
45990;PMS5003;31721;41.740;-88.000;2023-03-12T08:43:10;18;17;
45990;PMS5003;31721;41.740;-88.000;2023-03-12T08:45:37;21;21;
45990;PMS5003;31721;41.740;-88.000;2023-03-12T08:48:05;21;18;
45990;PMS5003;31721;41.740;-88.000;2023-03-12T08:50:33;15;14;
45990;PMS5003;31721;41.740;-88.000;2023-03-12T08:53:01;35;23;
45990;PMS5003;31721;41.740;-88.000;2023-03-12T08:55:29;23;19;
45990;PMS5003;31721;41.740;-88.000;2023-03-12T08:57:57;22;21;
45990;PMS5003;31721;41.740;-88.000;2023-03-12T09:00:24;22;21;
45990;PMS5003;31721;41.740;-88.000;2023-03-12T09:02:53;23;15;
45990;PMS5003;31721;41.740;-88.000;2023-03-12T09:05:21;27;18;
45990;PMS5003;31721;41.740;-88.000;2023-03-12T09:07:49;23;21;
45990;PMS5003;31721;41.740;-88.000;2023-03-12T09:10:16;22;17;
45990;PMS5003;31721;41.740;-88.000;2023-03-12T09:12:44;28;25;
45990;PMS5003;31721;41.740;-88.000;2023-03-12T09:15:12;19;18;
45990;PMS5003;31721;41.740;-88.000;2023-03-12T09:17:40;17;15;
45990;PMS5003;31721;41.740;-88.000;2023-03-12T09:20:09;21;17;
45990;PMS5003;31721;41.740;-88.000;2023-03-12T09:22:37;19;18;
45990;PMS5003;31721;41.740;-88.000;2023-03-12T09:25:07;21;21;
45990;PMS5003;31721;41.740;-88.000;2023-03-12T09:27:36;25;21;
45990;PMS5003;31721;41.740;-88.000;2023-03-12T09:30:05;22;19;
45990;PMS5003;31721;41.740;-88.000;2023-03-12T09:32:35;26;19;
45990;PMS5003;31721;41.740;-88.000;2023-03-12T09:35:03;33;27;
45990;PMS5003;31721;41.740;-88.000;2023-03-12T09:37:32;18;14;
45990;PMS5003;31721;41.740;-88.000;2023-03-12T09:40:01;26;22;
45990;PMS5003;31721;41.740;-88.000;2023-03-12T09:42:32;39;34;
45990;PMS5003;31721;41.740;-88.000;2023-03-12T09:45:07;26;22;
45990;PMS5003;31721;41.740;-88.000;2023-03-12T09:47:42;27;26;
45990;PMS5003;31721;41.740;-88.000;2023-03-12T09:50:17;27;18;
45990;PMS5003;31721;41.740;-88.000;2023-03-12T09:52:52;23;19;
45990;PMS5003;31721;41.740;-88.000;2023-03-12T09:55:24;21;21;
45990;PMS5003;31721;41.740;-88.000;2023-03-12T09:57:55;34;26;
45990;PMS5003;31721;41.740;-88.000;2023-03-12T10:00:23;33;30;
45990;PMS5003;31721;41.740;-88.000;2023-03-12T10:03:03;39;33;
45990;PMS5003;31721;41.740;-88.000;2023-03-12T10:05:44;31;27;
45990;PMS5003;31721;41.740;-88.000;2023-03-12T10:08:22;30;24;
45990;PMS5003;31721;41.740;-88.000;2023-03-12T10:10:57;29;23;
45990;PMS5003;31721;41.740;-88.000;2023-03-12T10:13:39;21;18;
45990;PMS5003;31721;41.740;-88.000;2023-03-12T10:16:21;29;25;
45990;PMS5003;31721;41.740;-88.000;2023-03-12T10:19:07;26;22;
45990;PMS5003;31721;41.740;-88.000;2023-03-12T10:21:46;32;27;
45990;PMS5003;31721;41.740;-88.000;2023-03-12T10:24:23;26;23;
45990;PMS5003;31721;41.740;-88.000;2023-03-12T10:27:00;34;32;
45990;PMS5003;31721;41.740;-88.000;2023-03-12T10:29:29;28;24;
45990;PMS5003;31721;41.740;-88.000;2023-03-12T10:31:59;23;19;
45990;PMS5003;31721;41.740;-88.000;2023-03-12T10:34:33;26;22;
45990;PMS5003;31721;41.740;-88.000;2023-03-12T10:37:08;26;25;
45990;PMS5003;31721;41.740;-88.000;2023-03-12T10:39:41;34;32;
45990;PMS5003;31721;41.740;-88.000;2023-03-12T10:42:11;30;26;
45990;PMS5003;31721;41.740;-88.000;2023-03-12T10:44:42;28;22;
45990;PMS5003;31721;41.740;-88.000;2023-03-12T10:47:17;28;24;
45990;PMS5003;31721;41.740;-88.000;2023-03-12T10:49:54;23;21;
45990;PMS5003;31721;41.740;-88.000;2023-03-12T10:52:39;20;17;
45990;PMS5003;31721;41.740;-88.000;2023-03-12T10:55:10;26;21;
45990;PMS5003;31721;41.740;-88.000;2023-03-12T10:57:45;27;23;
45990;PMS5003;31721;41.740;-88.000;2023-03-12T11:00:17;26;22;
45990;PMS5003;31721;41.740;-88.000;2023-03-12T11:02:46;24;19;
45990;PMS5003;31721;41.740;-88.000;2023-03-12T11:05:23;21;18;
45990;PMS5003;31721;41.740;-88.000;2023-03-12T11:07:52;27;22;
45990;PMS5003;31721;41.740;-88.000;2023-03-12T11:10:21;26;24;
45990;PMS5003;31721;41.740;-88.000;2023-03-12T11:12:53;23;19;
45990;PMS5003;31721;41.740;-88.000;2023-03-12T11:15:24;26;25;
45990;PMS5003;31721;41.740;-88.000;2023-03-12T11:18:04;22;22;
45990;PMS5003;31721;41.740;-88.000;2023-03-12T11:20:47;27;24;
45990;PMS5003;31721;41.740;-88.000;2023-03-12T11:23:19;30;22;
45990;PMS5003;31721;41.740;-88.000;2023-03-12T11:25:51;19;19;
45990;PMS5003;31721;41.740;-88.000;2023-03-12T11:28:23;32;27;
45990;PMS5003;31721;41.740;-88.000;2023-03-12T11:30:58;36;26;
45990;PMS5003;31721;41.740;-88.000;2023-03-12T11:33:28;27;19;
45990;PMS5003;31721;41.740;-88.000;2023-03-12T11:36:00;22;21;
45990;PMS5003;31721;41.740;-88.000;2023-03-12T11:38:40;27;26;
45990;PMS5003;31721;41.740;-88.000;2023-03-12T11:41:19;22;22;
45990;PMS5003;31721;41.740;-88.000;2023-03-12T11:44:03;23;21;
45990;PMS5003;31721;41.740;-88.000;2023-03-12T11:46:55;30;22;
45990;PMS5003;31721;41.740;-88.000;2023-03-12T11:49:36;23;22;
45990;PMS5003;31721;41.740;-88.000;2023-03-12T11:52:17;23;21;
45990;PMS5003;31721;41.740;-88.000;2023-03-12T11:54:58;28;22;
45990;PMS5003;31721;41.740;-88.000;2023-03-12T11:57:46;31;31;
45990;PMS5003;31721;41.740;-88.000;2023-03-12T12:00:23;27;19;
45990;PMS5003;31721;41.740;-88.000;2023-03-12T12:03:03;27;26;
45990;PMS5003;31721;41.740;-88.000;2023-03-12T12:08:02;25;19;
45990;PMS5003;31721;41.740;-88.000;2023-03-12T12:10:45;29;23;
45990;PMS5003;31721;41.740;-88.000;2023-03-12T12:13:24;30;29;
45990;PMS5003;31721;41.740;-88.000;2023-03-12T12:16:00;26;26;
45990;PMS5003;31721;41.740;-88.000;2023-03-12T12:18:48;24;22;
45990;PMS5003;31721;41.740;-88.000;2023-03-12T12:21:31;31;29;
45990;PMS5003;31721;41.740;-88.000;2023-03-12T12:24:11;29;25;
45990;PMS5003;31721;41.740;-88.000;2023-03-12T12:26:46;23;19;
45990;PMS5003;31721;41.740;-88.000;2023-03-12T12:29:22;24;21;
45990;PMS5003;31721;41.740;-88.000;2023-03-12T12:31:56;22;18;
45990;PMS5003;31721;41.740;-88.000;2023-03-12T12:34:31;33;26;
45990;PMS5003;31721;41.740;-88.000;2023-03-12T12:37:21;30;24;
45990;PMS5003;31721;41.740;-88.000;2023-03-12T12:39:58;32;22;
45990;PMS5003;31721;41.740;-88.000;2023-03-12T12:42:46;27;21;
45990;PMS5003;31721;41.740;-88.000;2023-03-12T12:45:20;31;28;
45990;PMS5003;31721;41.740;-88.000;2023-03-12T12:47:51;34;27;
45990;PMS5003;31721;41.740;-88.000;2023-03-12T12:50:24;26;23;
45990;PMS5003;31721;41.740;-88.000;2023-03-12T12:52:57;24;21;
45990;PMS5003;31721;41.740;-88.000;2023-03-12T12:55:31;31;28;
45990;PMS5003;31721;41.740;-88.000;2023-03-12T12:58:02;36;24;
45990;PMS5003;31721;41.740;-88.000;2023-03-12T13:00:38;32;30;
45990;PMS5003;31721;41.740;-88.000;2023-03-12T13:03:12;28;22;
45990;PMS5003;31721;41.740;-88.000;2023-03-12T13:05:44;31;30;
45990;PMS5003;31721;41.740;-88.000;2023-03-12T13:08:57;34;29;
45990;PMS5003;31721;41.740;-88.000;2023-03-12T13:11:28;26;24;
45990;PMS5003;31721;41.740;-88.000;2023-03-12T13:14:21;30;24;
45990;PMS5003;31721;41.740;-88.000;2023-03-12T13:17:07;22;14;
45990;PMS5003;31721;41.740;-88.000;2023-03-12T13:19:52;24;18;
45990;PMS5003;31721;41.740;-88.000;2023-03-12T13:22:29;31;26;
45990;PMS5003;31721;41.740;-88.000;2023-03-12T13:25:14;23;17;
45990;PMS5003;31721;41.740;-88.000;2023-03-12T13:27:57;22;18;
45990;PMS5003;31721;41.740;-88.000;2023-03-12T13:30:44;27;20;
45990;PMS5003;31721;41.740;-88.000;2023-03-12T13:33:14;24;20;
45990;PMS5003;31721;41.740;-88.000;2023-03-12T13:35:47;28;19;
45990;PMS5003;31721;41.740;-88.000;2023-03-12T13:38:33;24;23;
45990;PMS5003;31721;41.740;-88.000;2023-03-12T13:41:04;22;16;
45990;PMS5003;31721;41.740;-88.000;2023-03-12T13:43:49;22;21;
45990;PMS5003;31721;41.740;-88.000;2023-03-12T13:46:26;26;22;
45990;PMS5003;31721;41.740;-88.000;2023-03-12T13:49:03;24;23;
45990;PMS5003;31721;41.740;-88.000;2023-03-12T13:51:42;26;26;
45990;PMS5003;31721;41.740;-88.000;2023-03-12T13:54:14;25;23;
45990;PMS5003;31721;41.740;-88.000;2023-03-12T13:56:45;29;22;
45990;PMS5003;31721;41.740;-88.000;2023-03-12T13:59:23;23;22;
45990;PMS5003;31721;41.740;-88.000;2023-03-12T14:01:53;20;16;
45990;PMS5003;31721;41.740;-88.000;2023-03-12T14:04:28;24;24;
45990;PMS5003;31721;41.740;-88.000;2023-03-12T14:07:05;32;25;
45990;PMS5003;31721;41.740;-88.000;2023-03-12T14:09:51;25;18;
45990;PMS5003;31721;41.740;-88.000;2023-03-12T14:12:29;23;22;
45990;PMS5003;31721;41.740;-88.000;2023-03-12T14:15:07;24;22;
45990;PMS5003;31721;41.740;-88.000;2023-03-12T14:17:43;23;23;
45990;PMS5003;31721;41.740;-88.000;2023-03-12T14:20:13;27;23;
45990;PMS5003;31721;41.740;-88.000;2023-03-12T14:22:47;19;18;
45990;PMS5003;31721;41.740;-88.000;2023-03-12T14:25:21;28;19;
45990;PMS5003;31721;41.740;-88.000;2023-03-12T14:27:57;23;18;
45990;PMS5003;31721;41.740;-88.000;2023-03-12T14:30:29;38;28;
45990;PMS5003;31721;41.740;-88.000;2023-03-12T14:33:06;34;27;
45990;PMS5003;31721;41.740;-88.000;2023-03-12T14:35:40;21;18;
45990;PMS5003;31721;41.740;-88.000;2023-03-12T14:38:14;33;23;
45990;PMS5003;31721;41.740;-88.000;2023-03-12T14:40:48;23;20;
45990;PMS5003;31721;41.740;-88.000;2023-03-12T14:43:21;24;17;
45990;PMS5003;31721;41.740;-88.000;2023-03-12T14:45:53;24;21;
45990;PMS5003;31721;41.740;-88.000;2023-03-12T14:48:22;26;19;
45990;PMS5003;31721;41.740;-88.000;2023-03-12T14:50:53;21;17;
45990;PMS5003;31721;41.740;-88.000;2023-03-12T14:53:23;23;19;
45990;PMS5003;31721;41.740;-88.000;2023-03-12T14:55:57;23;23;
45990;PMS5003;31721;41.740;-88.000;2023-03-12T14:58:27;18;16;
45990;PMS5003;31721;41.740;-88.000;2023-03-12T15:00:56;18;15;
45990;PMS5003;31721;41.740;-88.000;2023-03-12T15:03:27;24;23;
45990;PMS5003;31721;41.740;-88.000;2023-03-12T15:05:59;17;16;
45990;PMS5003;31721;41.740;-88.000;2023-03-12T15:08:27;23;17;
45990;PMS5003;31721;41.740;-88.000;2023-03-12T15:10:56;23;20;
45990;PMS5003;31721;41.740;-88.000;2023-03-12T15:13:25;24;23;
45990;PMS5003;31721;41.740;-88.000;2023-03-12T15:15:54;31;24;
45990;PMS5003;31721;41.740;-88.000;2023-03-12T15:18:24;28;24;
45990;PMS5003;31721;41.740;-88.000;2023-03-12T15:20:54;24;14;
45990;PMS5003;31721;41.740;-88.000;2023-03-12T15:23:25;21;18;
45990;PMS5003;31721;41.740;-88.000;2023-03-12T15:26:13;20;16;
45990;PMS5003;31721;41.740;-88.000;2023-03-12T15:28:53;30;24;
45990;PMS5003;31721;41.740;-88.000;2023-03-12T15:31:22;29;23;
45990;PMS5003;31721;41.740;-88.000;2023-03-12T15:33:58;15;12;
45990;PMS5003;31721;41.740;-88.000;2023-03-12T15:36:29;25;23;
45990;PMS5003;31721;41.740;-88.000;2023-03-12T15:38:59;29;25;
45990;PMS5003;31721;41.740;-88.000;2023-03-12T15:41:34;25;21;
45990;PMS5003;31721;41.740;-88.000;2023-03-12T15:44:11;21;20;
45990;PMS5003;31721;41.740;-88.000;2023-03-12T15:46:46;24;18;
45990;PMS5003;31721;41.740;-88.000;2023-03-12T15:49:19;26;15;
45990;PMS5003;31721;41.740;-88.000;2023-03-12T15:51:59;20;15;
45990;PMS5003;31721;41.740;-88.000;2023-03-12T15:54:30;19;13;
45990;PMS5003;31721;41.740;-88.000;2023-03-12T15:57:31;19;13;
45990;PMS5003;31721;41.740;-88.000;2023-03-12T16:00:18;24;16;
45990;PMS5003;31721;41.740;-88.000;2023-03-12T16:02:51;19;17;
45990;PMS5003;31721;41.740;-88.000;2023-03-12T16:05:21;25;22;
45990;PMS5003;31721;41.740;-88.000;2023-03-12T16:07:51;21;16;
45990;PMS5003;31721;41.740;-88.000;2023-03-12T16:10:19;25;20;
45990;PMS5003;31721;41.740;-88.000;2023-03-12T16:12:50;22;20;
45990;PMS5003;31721;41.740;-88.000;2023-03-12T16:15:25;20;16;
45990;PMS5003;31721;41.740;-88.000;2023-03-12T16:17:57;16;16;
45990;PMS5003;31721;41.740;-88.000;2023-03-12T16:20:24;20;20;